sensor_id;sensor_type;location;lat;lon;timestamp;pressure;altitude;pressure_sealevel;temperature;humidity
21100;BME280;10708;50.824;4.408;2023-03-03T00:03:24;101331.22;;;2.57;100.00
21100;BME280;10708;50.824;4.408;2023-03-03T00:08:27;101344.13;;;2.51;100.00
21100;BME280;10708;50.824;4.408;2023-03-03T00:13:29;101343.25;;;2.46;100.00
21100;BME280;10708;50.824;4.408;2023-03-03T00:18:35;101345.75;;;2.37;100.00
21100;BME280;10708;50.824;4.408;2023-03-03T00:23:39;101345.72;;;2.34;100.00
21100;BME280;10708;50.824;4.408;2023-03-03T00:28:45;101352.56;;;2.26;100.00
21100;BME280;10708;50.824;4.408;2023-03-03T00:33:50;101359.44;;;2.20;100.00
21100;BME280;10708;50.824;4.408;2023-03-03T00:38:55;101360.22;;;2.13;100.00
21100;BME280;10708;50.824;4.408;2023-03-03T00:49:38;101358.31;;;1.97;100.00
21100;BME280;10708;50.824;4.408;2023-03-03T00:54:40;101352.25;;;1.97;100.00
21100;BME280;10708;50.824;4.408;2023-03-03T00:59:42;101352.16;;;1.89;100.00
21100;BME280;10708;50.824;4.408;2023-03-03T01:04:50;101361.63;;;1.85;100.00
21100;BME280;10708;50.824;4.408;2023-03-03T01:09:53;101356.34;;;1.78;100.00
21100;BME280;10708;50.824;4.408;2023-03-03T01:14:55;101364.94;;;1.74;100.00
21100;BME280;10708;50.824;4.408;2023-03-03T01:19:59;101359.72;;;1.69;100.00
21100;BME280;10708;50.824;4.408;2023-03-03T01:25:02;101369.22;;;1.69;100.00
21100;BME280;10708;50.824;4.408;2023-03-03T01:30:06;101369.94;;;1.59;100.00
21100;BME280;10708;50.824;4.408;2023-03-03T01:35:10;101370.78;;;1.56;100.00
21100;BME280;10708;50.824;4.408;2023-03-03T01:40:16;101360.31;;;1.52;100.00
21100;BME280;10708;50.824;4.408;2023-03-03T01:45:20;101368.00;;;1.44;100.00
21100;BME280;10708;50.824;4.408;2023-03-03T01:50:35;101372.28;;;1.42;100.00
21100;BME280;10708;50.824;4.408;2023-03-03T01:55:41;101370.53;;;1.38;100.00
21100;BME280;10708;50.824;4.408;2023-03-03T02:00:45;101368.72;;;1.34;100.00
21100;BME280;10708;50.824;4.408;2023-03-03T02:05:56;101358.28;;;1.29;100.00
21100;BME280;10708;50.824;4.408;2023-03-03T02:11:01;101357.38;;;1.27;100.00
21100;BME280;10708;50.824;4.408;2023-03-03T02:16:05;101351.28;;;1.24;100.00
21100;BME280;10708;50.824;4.408;2023-03-03T02:21:11;101350.34;;;1.19;100.00
21100;BME280;10708;50.824;4.408;2023-03-03T02:26:18;101349.53;;;1.23;100.00
21100;BME280;10708;50.824;4.408;2023-03-03T02:31:24;101353.88;;;1.24;100.00
21100;BME280;10708;50.824;4.408;2023-03-03T02:36:28;101353.97;;;1.31;100.00
21100;BME280;10708;50.824;4.408;2023-03-03T02:41:35;101353.22;;;1.40;100.00
21100;BME280;10708;50.824;4.408;2023-03-03T02:46:42;101364.50;;;1.42;100.00
21100;BME280;10708;50.824;4.408;2023-03-03T02:51:45;101357.59;;;1.42;100.00
21100;BME280;10708;50.824;4.408;2023-03-03T02:56:51;101356.84;;;1.50;100.00
21100;BME280;10708;50.824;4.408;2023-03-03T03:01:54;101358.53;;;1.47;100.00
21100;BME280;10708;50.824;4.408;2023-03-03T03:06:56;101362.94;;;1.53;100.00
21100;BME280;10708;50.824;4.408;2023-03-03T03:12:00;101374.13;;;1.51;100.00
21100;BME280;10708;50.824;4.408;2023-03-03T03:17:02;101369.88;;;1.54;100.00
21100;BME280;10708;50.824;4.408;2023-03-03T03:22:04;101367.28;;;1.54;100.00
21100;BME280;10708;50.824;4.408;2023-03-03T03:27:08;101373.38;;;1.56;100.00
21100;BME280;10708;50.824;4.408;2023-03-03T03:32:10;101372.47;;;1.54;100.00
21100;BME280;10708;50.824;4.408;2023-03-03T03:37:13;101370.66;;;1.50;100.00
21100;BME280;10708;50.824;4.408;2023-03-03T03:42:17;101376.72;;;1.51;100.00
21100;BME280;10708;50.824;4.408;2023-03-03T03:47:19;101374.13;;;1.47;100.00
21100;BME280;10708;50.824;4.408;2023-03-03T03:52:21;101380.16;;;1.46;100.00
21100;BME280;10708;50.824;4.408;2023-03-03T03:57:25;101387.78;;;1.36;100.00
21100;BME280;10708;50.824;4.408;2023-03-03T04:02:27;101378.00;;;1.18;100.00
21100;BME280;10708;50.824;4.408;2023-03-03T04:07:30;101380.50;;;1.12;100.00
21100;BME280;10708;50.824;4.408;2023-03-03T04:12:33;101382.25;;;1.13;100.00
21100;BME280;10708;50.824;4.408;2023-03-03T04:17:38;101372.78;;;1.17;100.00
21100;BME280;10708;50.824;4.408;2023-03-03T04:22:40;101374.56;;;1.19;100.00
21100;BME280;10708;50.824;4.408;2023-03-03T04:27:44;101385.66;;;1.10;100.00
21100;BME280;10708;50.824;4.408;2023-03-03T04:32:47;101389.94;;;1.07;100.00
21100;BME280;10708;50.824;4.408;2023-03-03T04:37:49;101395.81;;;0.97;100.00
21100;BME280;10708;50.824;4.408;2023-03-03T04:42:52;101390.59;;;0.94;100.00
21100;BME280;10708;50.824;4.408;2023-03-03T04:47:54;101392.38;;;0.98;100.00
21100;BME280;10708;50.824;4.408;2023-03-03T04:52:57;101392.31;;;0.93;100.00
21100;BME280;10708;50.824;4.408;2023-03-03T04:58:00;101396.50;;;0.85;100.00
21100;BME280;10708;50.824;4.408;2023-03-03T05:03:03;101397.06;;;0.67;100.00
21100;BME280;10708;50.824;4.408;2023-03-03T05:08:05;101405.53;;;0.60;100.00
21100;BME280;10708;50.824;4.408;2023-03-03T05:13:10;101409.59;;;0.45;100.00
21100;BME280;10708;50.824;4.408;2023-03-03T05:18:15;101413.06;;;0.45;100.00
21100;BME280;10708;50.824;4.408;2023-03-03T05:23:17;101418.34;;;0.50;100.00
21100;BME280;10708;50.824;4.408;2023-03-03T05:28:22;101419.22;;;0.52;100.00
21100;BME280;10708;50.824;4.408;2023-03-03T05:33:24;101417.44;;;0.48;100.00
21100;BME280;10708;50.824;4.408;2023-03-03T05:38:26;101418.16;;;0.42;100.00
21100;BME280;10708;50.824;4.408;2023-03-03T05:43:30;101425.19;;;0.46;100.00
21100;BME280;10708;50.824;4.408;2023-03-03T05:48:32;101430.50;;;0.54;100.00
21100;BME280;10708;50.824;4.408;2023-03-03T05:53:35;101436.47;;;0.50;100.00
21100;BME280;10708;50.824;4.408;2023-03-03T05:58:39;101438.31;;;0.55;100.00
21100;BME280;10708;50.824;4.408;2023-03-03T06:03:41;101442.69;;;0.58;100.00
21100;BME280;10708;50.824;4.408;2023-03-03T06:08:43;101445.28;;;0.58;100.00
21100;BME280;10708;50.824;4.408;2023-03-03T06:13:47;101452.88;;;0.49;100.00
21100;BME280;10708;50.824;4.408;2023-03-03T06:18:50;101450.19;;;0.44;100.00
21100;BME280;10708;50.824;4.408;2023-03-03T06:23:52;101469.91;;;0.36;100.00
21100;BME280;10708;50.824;4.408;2023-03-03T06:28:55;101469.81;;;0.33;100.00
21100;BME280;10708;50.824;4.408;2023-03-03T06:33:58;101465.22;;;0.18;100.00
21100;BME280;10708;50.824;4.408;2023-03-03T06:39:00;101475.81;;;0.29;100.00
21100;BME280;10708;50.824;4.408;2023-03-03T06:44:04;101475.16;;;0.39;100.00
21100;BME280;10708;50.824;4.408;2023-03-03T06:49:06;101488.22;;;0.45;100.00
21100;BME280;10708;50.824;4.408;2023-03-03T06:54:11;101494.47;;;0.55;100.00
21100;BME280;10708;50.824;4.408;2023-03-03T06:59:16;101497.13;;;0.58;100.00
21100;BME280;10708;50.824;4.408;2023-03-03T07:04:26;101505.00;;;0.64;100.00
21100;BME280;10708;50.824;4.408;2023-03-03T07:09:31;101512.03;;;0.69;100.00
21100;BME280;10708;50.824;4.408;2023-03-03T07:14:36;101511.91;;;0.63;100.00
21100;BME280;10708;50.824;4.408;2023-03-03T07:19:42;101521.38;;;0.61;100.00
21100;BME280;10708;50.824;4.408;2023-03-03T07:24:46;101530.19;;;0.71;100.00
21100;BME280;10708;50.824;4.408;2023-03-03T07:29:52;101543.00;;;0.63;100.00
21100;BME280;10708;50.824;4.408;2023-03-03T07:34:56;101546.38;;;0.58;100.00
21100;BME280;10708;50.824;4.408;2023-03-03T07:39:59;101537.59;;;0.53;100.00
21100;BME280;10708;50.824;4.408;2023-03-03T07:45:21;101540.84;;;0.43;100.00
21100;BME280;10708;50.824;4.408;2023-03-03T07:50:25;101556.41;;;0.43;100.00
21100;BME280;10708;50.824;4.408;2023-03-03T07:55:33;101560.91;;;0.50;100.00
21100;BME280;10708;50.824;4.408;2023-03-03T08:06:38;101567.06;;;0.56;100.00
21100;BME280;10708;50.824;4.408;2023-03-03T08:11:48;101576.78;;;0.66;100.00
21100;BME280;10708;50.824;4.408;2023-03-03T08:16:54;101577.66;;;0.67;100.00
21100;BME280;10708;50.824;4.408;2023-03-03T08:22:02;101580.13;;;0.61;100.00
21100;BME280;10708;50.824;4.408;2023-03-03T08:27:12;101581.75;;;0.56;100.00
21100;BME280;10708;50.824;4.408;2023-03-03T08:32:14;101595.72;;;0.62;100.00
21100;BME280;10708;50.824;4.408;2023-03-03T08:37:18;101594.94;;;0.66;100.00
21100;BME280;10708;50.824;4.408;2023-03-03T08:42:21;101595.81;;;0.67;100.00
21100;BME280;10708;50.824;4.408;2023-03-03T08:47:25;101595.09;;;0.74;100.00
21100;BME280;10708;50.824;4.408;2023-03-03T08:52:29;101608.25;;;0.83;100.00
21100;BME280;10708;50.824;4.408;2023-03-03T08:57:31;101601.47;;;0.90;100.00
21100;BME280;10708;50.824;4.408;2023-03-03T09:02:34;101613.72;;;0.97;100.00
21100;BME280;10708;50.824;4.408;2023-03-03T09:07:38;101610.09;;;0.90;100.00
21100;BME280;10708;50.824;4.408;2023-03-03T09:12:42;101613.41;;;0.82;100.00
21100;BME280;10708;50.824;4.408;2023-03-03T09:17:48;101630.00;;;0.90;100.00
21100;BME280;10708;50.824;4.408;2023-03-03T09:22:53;101622.41;;;0.99;100.00
21100;BME280;10708;50.824;4.408;2023-03-03T09:27:55;101632.78;;;0.99;100.00
21100;BME280;10708;50.824;4.408;2023-03-03T09:32:58;101646.78;;;1.07;100.00
21100;BME280;10708;50.824;4.408;2023-03-03T09:38:11;101645.91;;;1.06;100.00
21100;BME280;10708;50.824;4.408;2023-03-03T09:43:26;101642.50;;;1.09;100.00
21100;BME280;10708;50.824;4.408;2023-03-03T09:48:44;101642.81;;;1.26;100.00
21100;BME280;10708;50.824;4.408;2023-03-03T09:54:01;101642.69;;;1.18;100.00
21100;BME280;10708;50.824;4.408;2023-03-03T09:59:20;101646.34;;;1.28;100.00
21100;BME280;10708;50.824;4.408;2023-03-03T10:04:47;101649.88;;;1.33;100.00
21100;BME280;10708;50.824;4.408;2023-03-03T10:10:22;101668.25;;;1.43;100.00
21100;BME280;10708;50.824;4.408;2023-03-03T10:15:36;101660.63;;;1.53;100.00
21100;BME280;10708;50.824;4.408;2023-03-03T10:20:51;101659.31;;;1.74;100.00
21100;BME280;10708;50.824;4.408;2023-03-03T10:26:04;101651.41;;;1.70;100.00
21100;BME280;10708;50.824;4.408;2023-03-03T10:31:14;101670.66;;;1.79;100.00
21100;BME280;10708;50.824;4.408;2023-03-03T10:36:28;101660.59;;;1.99;100.00
21100;BME280;10708;50.824;4.408;2023-03-03T10:41:45;101659.03;;;2.09;100.00
21100;BME280;10708;50.824;4.408;2023-03-03T10:47:13;101658.97;;;2.06;100.00
21100;BME280;10708;50.824;4.408;2023-03-03T10:52:31;101668.56;;;2.11;100.00
21100;BME280;10708;50.824;4.408;2023-03-03T10:57:41;101671.16;;;2.08;100.00
21100;BME280;10708;50.824;4.408;2023-03-03T11:03:06;101661.00;;;2.25;100.00
21100;BME280;10708;50.824;4.408;2023-03-03T11:08:19;101647.34;;;2.40;100.00
21100;BME280;10708;50.824;4.408;2023-03-03T11:13:32;101645.09;;;2.63;100.00
21100;BME280;10708;50.824;4.408;2023-03-03T11:18:50;101659.09;;;2.72;100.00
21100;BME280;10708;50.824;4.408;2023-03-03T11:24:03;101650.53;;;2.81;100.00
21100;BME280;10708;50.824;4.408;2023-03-03T11:29:23;101649.09;;;3.03;100.00
21100;BME280;10708;50.824;4.408;2023-03-03T11:34:44;101645.53;;;2.96;100.00
21100;BME280;10708;50.824;4.408;2023-03-03T11:39:52;101659.34;;;2.90;100.00
21100;BME280;10708;50.824;4.408;2023-03-03T11:45:00;101654.38;;;3.10;100.00
21100;BME280;10708;50.824;4.408;2023-03-03T11:50:10;101650.94;;;3.13;100.00
21100;BME280;10708;50.824;4.408;2023-03-03T11:55:18;101648.44;;;3.22;100.00
21100;BME280;10708;50.824;4.408;2023-03-03T12:00:28;101643.38;;;3.34;100.00
21100;BME280;10708;50.824;4.408;2023-03-03T12:05:43;101643.56;;;3.52;100.00
21100;BME280;10708;50.824;4.408;2023-03-03T12:10:49;101634.22;;;3.74;100.00
21100;BME280;10708;50.824;4.408;2023-03-03T12:16:05;101631.03;;;4.07;100.00
21100;BME280;10708;50.824;4.408;2023-03-03T12:21:31;101624.97;;;4.08;100.00
21100;BME280;10708;50.824;4.408;2023-03-03T12:26:42;101618.78;;;3.95;100.00
21100;BME280;10708;50.824;4.408;2023-03-03T12:31:50;101611.84;;;4.00;100.00
21100;BME280;10708;50.824;4.408;2023-03-03T12:37:08;101615.47;;;4.16;100.00
21100;BME280;10708;50.824;4.408;2023-03-03T12:42:24;101605.19;;;4.37;100.00
21100;BME280;10708;50.824;4.408;2023-03-03T12:47:37;101599.22;;;4.58;100.00
21100;BME280;10708;50.824;4.408;2023-03-03T12:52:48;101609.69;;;4.66;100.00
21100;BME280;10708;50.824;4.408;2023-03-03T12:57:59;101607.19;;;4.95;100.00
21100;BME280;10708;50.824;4.408;2023-03-03T13:03:16;101603.72;;;4.94;100.00
21100;BME280;10708;50.824;4.408;2023-03-03T13:08:37;101602.81;;;4.92;100.00
21100;BME280;10708;50.824;4.408;2023-03-03T13:13:51;101589.69;;;4.68;100.00
21100;BME280;10708;50.824;4.408;2023-03-03T13:18:59;101591.44;;;4.69;100.00
21100;BME280;10708;50.824;4.408;2023-03-03T13:24:11;101598.38;;;4.65;100.00
21100;BME280;10708;50.824;4.408;2023-03-03T13:29:19;101591.38;;;4.63;100.00
21100;BME280;10708;50.824;4.408;2023-03-03T13:34:36;101581.84;;;4.71;100.00
21100;BME280;10708;50.824;4.408;2023-03-03T13:39:47;101588.03;;;4.94;100.00
21100;BME280;10708;50.824;4.408;2023-03-03T13:44:54;101578.50;;;5.05;100.00
21100;BME280;10708;50.824;4.408;2023-03-03T13:50:14;101577.63;;;5.03;100.00
21100;BME280;10708;50.824;4.408;2023-03-03T13:55:21;101575.84;;;4.92;100.00
21100;BME280;10708;50.824;4.408;2023-03-03T14:00:35;101568.06;;;5.11;100.00
21100;BME280;10708;50.824;4.408;2023-03-03T14:05:44;101571.63;;;5.29;100.00
21100;BME280;10708;50.824;4.408;2023-03-03T14:11:04;101555.94;;;5.38;100.00
21100;BME280;10708;50.824;4.408;2023-03-03T14:16:10;101563.78;;;5.45;100.00
21100;BME280;10708;50.824;4.408;2023-03-03T14:21:26;101549.84;;;5.40;100.00
21100;BME280;10708;50.824;4.408;2023-03-03T14:26:29;101562.91;;;5.37;100.00
21100;BME280;10708;50.824;4.408;2023-03-03T14:31:38;101558.56;;;5.62;100.00
21100;BME280;10708;50.824;4.408;2023-03-03T14:36:44;101550.72;;;5.74;100.00
21100;BME280;10708;50.824;4.408;2023-03-03T14:41:47;101543.81;;;5.88;100.00
21100;BME280;10708;50.824;4.408;2023-03-03T14:47:02;101538.53;;;5.90;100.00
21100;BME280;10708;50.824;4.408;2023-03-03T14:52:18;101543.78;;;5.96;100.00
21100;BME280;10708;50.824;4.408;2023-03-03T14:57:36;101542.03;;;5.95;100.00
21100;BME280;10708;50.824;4.408;2023-03-03T15:03:00;101541.16;;;6.08;100.00
21100;BME280;10708;50.824;4.408;2023-03-03T15:08:09;101535.91;;;6.16;100.00
21100;BME280;10708;50.824;4.408;2023-03-03T15:13:28;101548.09;;;6.12;100.00
21100;BME280;10708;50.824;4.408;2023-03-03T15:18:32;101538.50;;;6.25;100.00
21100;BME280;10708;50.824;4.408;2023-03-03T15:23:43;101538.47;;;6.33;100.00
21100;BME280;10708;50.824;4.408;2023-03-03T15:29:00;101530.63;;;6.34;100.00
21100;BME280;10708;50.824;4.408;2023-03-03T15:34:21;101524.50;;;6.35;100.00
21100;BME280;10708;50.824;4.408;2023-03-03T15:39:34;101522.75;;;6.34;100.00
21100;BME280;10708;50.824;4.408;2023-03-03T15:44:48;101524.47;;;6.43;100.00
21100;BME280;10708;50.824;4.408;2023-03-03T15:50:14;101524.47;;;6.44;100.00
21100;BME280;10708;50.824;4.408;2023-03-03T16:00:59;101518.31;;;6.53;100.00
21100;BME280;10708;50.824;4.408;2023-03-03T16:06:07;101513.06;;;6.60;100.00
21100;BME280;10708;50.824;4.408;2023-03-03T16:11:20;101512.13;;;6.72;100.00
21100;BME280;10708;50.824;4.408;2023-03-03T16:16:33;101526.19;;;6.57;100.00
21100;BME280;10708;50.824;4.408;2023-03-03T16:22:00;101517.94;;;7.26;100.00
21100;BME280;10708;50.824;4.408;2023-03-03T16:27:11;101533.78;;;7.06;100.00
21100;BME280;10708;50.824;4.408;2023-03-03T16:32:20;101523.44;;;6.83;100.00
21100;BME280;10708;50.824;4.408;2023-03-03T16:37:30;101531.34;;;6.71;100.00
21100;BME280;10708;50.824;4.408;2023-03-03T16:42:36;101526.19;;;6.57;100.00
21100;BME280;10708;50.824;4.408;2023-03-03T16:47:52;101529.72;;;6.44;100.00
21100;BME280;10708;50.824;4.408;2023-03-03T16:53:05;101529.75;;;6.34;100.00
21100;BME280;10708;50.824;4.408;2023-03-03T16:58:21;101529.78;;;6.23;100.00
21100;BME280;10708;50.824;4.408;2023-03-03T17:03:47;101535.91;;;6.17;100.00
21100;BME280;10708;50.824;4.408;2023-03-03T17:09:06;101542.88;;;6.12;100.00
21100;BME280;10708;50.824;4.408;2023-03-03T17:14:27;101551.63;;;6.08;100.00
21100;BME280;10708;50.824;4.408;2023-03-03T17:19:44;101552.47;;;6.04;100.00
21100;BME280;10708;50.824;4.408;2023-03-03T17:24:59;101564.72;;;5.98;100.00
21100;BME280;10708;50.824;4.408;2023-03-03T17:30:10;101562.97;;;5.97;100.00
21100;BME280;10708;50.824;4.408;2023-03-03T17:35:27;101578.63;;;5.93;100.00
21100;BME280;10708;50.824;4.408;2023-03-03T17:40:50;101565.56;;;5.92;100.00
21100;BME280;10708;50.824;4.408;2023-03-03T17:45:58;101572.53;;;5.91;100.00
21100;BME280;10708;50.824;4.408;2023-03-03T17:56:31;101583.00;;;5.96;100.00
21100;BME280;10708;50.824;4.408;2023-03-03T18:02:01;101582.13;;;5.92;100.00
21100;BME280;10708;50.824;4.408;2023-03-03T18:07:17;101594.31;;;5.89;100.00
21100;BME280;10708;50.824;4.408;2023-03-03T18:12:28;101600.41;;;5.86;100.00
21100;BME280;10708;50.824;4.408;2023-03-03T18:17:59;101603.88;;;5.82;100.00
21100;BME280;10708;50.824;4.408;2023-03-03T18:23:27;101610.88;;;5.79;100.00
21100;BME280;10708;50.824;4.408;2023-03-03T18:28:44;101603.00;;;5.74;100.00
21100;BME280;10708;50.824;4.408;2023-03-03T18:34:06;101608.22;;;5.71;100.00
21100;BME280;10708;50.824;4.408;2023-03-03T18:39:12;101606.50;;;5.64;100.00
21100;BME280;10708;50.824;4.408;2023-03-03T18:44:33;101613.44;;;5.70;100.00
21100;BME280;10708;50.824;4.408;2023-03-03T18:49:52;101611.72;;;5.76;100.00
21100;BME280;10708;50.824;4.408;2023-03-03T18:55:20;101612.59;;;5.84;100.00
21100;BME280;10708;50.824;4.408;2023-03-03T19:00:27;101607.41;;;5.92;100.00
21100;BME280;10708;50.824;4.408;2023-03-03T19:05:35;101608.28;;;5.96;100.00
21100;BME280;10708;50.824;4.408;2023-03-03T19:10:55;101610.00;;;6.01;100.00
21100;BME280;10708;50.824;4.408;2023-03-03T19:15:59;101611.75;;;6.02;100.00
21100;BME280;10708;50.824;4.408;2023-03-03T19:21:06;101607.38;;;6.10;100.00
21100;BME280;10708;50.824;4.408;2023-03-03T19:26:35;101608.25;;;6.09;100.00
21100;BME280;10708;50.824;4.408;2023-03-03T19:31:43;101608.25;;;6.11;100.00
21100;BME280;10708;50.824;4.408;2023-03-03T19:37:03;101614.38;;;6.08;100.00
21100;BME280;10708;50.824;4.408;2023-03-03T19:42:21;101616.97;;;6.13;100.00
21100;BME280;10708;50.824;4.408;2023-03-03T19:47:32;101626.56;;;6.15;100.00
21100;BME280;10708;50.824;4.408;2023-03-03T19:52:41;101625.69;;;6.10;100.00
21100;BME280;10708;50.824;4.408;2023-03-03T19:57:54;101630.94;;;6.13;100.00
21100;BME280;10708;50.824;4.408;2023-03-03T20:03:24;101633.53;;;6.12;100.00
21100;BME280;10708;50.824;4.408;2023-03-03T20:08:36;101635.28;;;6.16;100.00
21100;BME280;10708;50.824;4.408;2023-03-03T20:13:50;101644.88;;;6.15;100.00
21100;BME280;10708;50.824;4.408;2023-03-03T20:19:06;101645.75;;;6.16;100.00
21100;BME280;10708;50.824;4.408;2023-03-03T20:24:41;101648.38;;;6.13;100.00
21100;BME280;10708;50.824;4.408;2023-03-03T20:30:04;101650.97;;;6.14;100.00
21100;BME280;10708;50.824;4.408;2023-03-03T20:35:18;101651.00;;;6.16;100.00
21100;BME280;10708;50.824;4.408;2023-03-03T20:40:30;101655.34;;;6.17;100.00
21100;BME280;10708;50.824;4.408;2023-03-03T20:45:46;101652.75;;;6.17;100.00
21100;BME280;10708;50.824;4.408;2023-03-03T20:50:56;101657.09;;;6.15;100.00
21100;BME280;10708;50.824;4.408;2023-03-03T20:56:05;101666.69;;;6.13;100.00
21100;BME280;10708;50.824;4.408;2023-03-03T21:01:13;101662.34;;;6.07;100.00
21100;BME280;10708;50.824;4.408;2023-03-03T21:06:18;101673.66;;;6.08;100.00
21100;BME280;10708;50.824;4.408;2023-03-03T21:11:24;101677.16;;;6.05;100.00
21100;BME280;10708;50.824;4.408;2023-03-03T21:16:41;101678.03;;;6.07;100.00
21100;BME280;10708;50.824;4.408;2023-03-03T21:21:43;101684.97;;;6.01;100.00
21100;BME280;10708;50.824;4.408;2023-03-03T21:26:55;101681.50;;;6.02;100.00
21100;BME280;10708;50.824;4.408;2023-03-03T21:31:59;101695.44;;;5.98;100.00
21100;BME280;10708;50.824;4.408;2023-03-03T21:37:03;101685.88;;;5.97;100.00
21100;BME280;10708;50.824;4.408;2023-03-03T21:42:08;101700.69;;;5.96;100.00
21100;BME280;10708;50.824;4.408;2023-03-03T21:47:13;101696.28;;;5.92;100.00
21100;BME280;10708;50.824;4.408;2023-03-03T21:52:18;101702.41;;;5.94;100.00
21100;BME280;10708;50.824;4.408;2023-03-03T21:57:22;101699.81;;;5.97;100.00
21100;BME280;10708;50.824;4.408;2023-03-03T22:02:24;101701.56;;;5.97;100.00
21100;BME280;10708;50.824;4.408;2023-03-03T22:07:27;101690.13;;;5.79;100.00
21100;BME280;10708;50.824;4.408;2023-03-03T22:12:31;101695.41;;;5.87;100.00
21100;BME280;10708;50.824;4.408;2023-03-03T22:17:33;101697.16;;;5.86;100.00
21100;BME280;10708;50.824;4.408;2023-03-03T22:22:35;101694.50;;;5.80;100.00
21100;BME280;10708;50.824;4.408;2023-03-03T22:27:39;101697.97;;;5.79;100.00
21100;BME280;10708;50.824;4.408;2023-03-03T22:32:41;101690.16;;;5.76;100.00
21100;BME280;10708;50.824;4.408;2023-03-03T22:37:44;101693.63;;;5.72;100.00
21100;BME280;10708;50.824;4.408;2023-03-03T22:42:48;101701.44;;;5.65;100.00
21100;BME280;10708;50.824;4.408;2023-03-03T22:47:50;101696.22;;;5.63;100.00
21100;BME280;10708;50.824;4.408;2023-03-03T22:52:53;101700.56;;;5.64;100.00
21100;BME280;10708;50.824;4.408;2023-03-03T22:57:57;101699.69;;;5.57;100.00
21100;BME280;10708;50.824;4.408;2023-03-03T23:02:59;101693.56;;;5.48;100.00
21100;BME280;10708;50.824;4.408;2023-03-03T23:08:02;101695.31;;;5.52;100.00
21100;BME280;10708;50.824;4.408;2023-03-03T23:13:06;101703.16;;;5.49;100.00
21100;BME280;10708;50.824;4.408;2023-03-03T23:18:09;101694.44;;;5.45;100.00
21100;BME280;10708;50.824;4.408;2023-03-03T23:23:11;101693.53;;;5.42;100.00
21100;BME280;10708;50.824;4.408;2023-03-03T23:28:15;101691.78;;;5.39;100.00
21100;BME280;10708;50.824;4.408;2023-03-03T23:33:19;101696.16;;;5.37;100.00
21100;BME280;10708;50.824;4.408;2023-03-03T23:38:21;101696.16;;;5.42;100.00
21100;BME280;10708;50.824;4.408;2023-03-03T23:43:25;101694.41;;;5.35;100.00
21100;BME280;10708;50.824;4.408;2023-03-03T23:48:27;101699.63;;;5.41;100.00
21100;BME280;10708;50.824;4.408;2023-03-03T23:53:30;101692.66;;;5.35;100.00
21100;BME280;10708;50.824;4.408;2023-03-03T23:58:33;101700.50;;;5.40;100.00
